Armstrong, Iowa
Current Conditions -  °F | °C
As of 5:52 PM on Monday 24 Nov 2014 (Local Time) from KEST Reporting Station
Overcast Overcast  
Wind Chill: -1°   Ceiling: 2300
Heat Index: 19°   Visibility: 10mi
Dew Point: 11°   Wind: 32mph
Humidity: 71%   Direction: 310°NW
Pressure: 29.81"   Gusts: 46mph
Location:  43.4°N, 94.48°W
Report Text: KEST 242352Z AUTO 31028G40KT 10SM BKN023 OVC030 M07/M12 A2981 RMK AO2 PK WND 32040/2347 SNB16E26 SLP114 P0000 60000 T10721117 11050 21072 53040
Loading
Personal Weather Stations






























Interactive Weather Map New forecast layout! Learn more

10-Day Weather Forecast

Advertisements
Track Severe Weather on mobile